sensor_id;sensor_type;location;lat;lon;timestamp;P1;durP1;ratioP1;P2;durP2;ratioP2
37477;SDS011;23334;54.316;10.182;2023-04-24T00:01:03;6.20;;;5.30;;
37477;SDS011;23334;54.316;10.182;2023-04-24T00:03:28;6.43;;;5.80;;
37477;SDS011;23334;54.316;10.182;2023-04-24T00:05:54;6.27;;;5.70;;
37477;SDS011;23334;54.316;10.182;2023-04-24T00:08:20;7.10;;;5.83;;
37477;SDS011;23334;54.316;10.182;2023-04-24T00:10:47;6.17;;;5.10;;
37477;SDS011;23334;54.316;10.182;2023-04-24T00:13:13;5.97;;;5.47;;
37477;SDS011;23334;54.316;10.182;2023-04-24T00:15:39;8.77;;;5.30;;
37477;SDS011;23334;54.316;10.182;2023-04-24T00:18:05;6.70;;;5.50;;
37477;SDS011;23334;54.316;10.182;2023-04-24T00:20:32;5.67;;;5.07;;
37477;SDS011;23334;54.316;10.182;2023-04-24T00:23:00;8.43;;;5.80;;
37477;SDS011;23334;54.316;10.182;2023-04-24T00:25:25;8.07;;;5.20;;
37477;SDS011;23334;54.316;10.182;2023-04-24T00:27:51;5.20;;;4.63;;
37477;SDS011;23334;54.316;10.182;2023-04-24T00:30:17;7.50;;;5.50;;
37477;SDS011;23334;54.316;10.182;2023-04-24T00:32:43;5.60;;;5.00;;
37477;SDS011;23334;54.316;10.182;2023-04-24T00:35:09;5.00;;;4.60;;
37477;SDS011;23334;54.316;10.182;2023-04-24T00:37:35;5.27;;;4.87;;
37477;SDS011;23334;54.316;10.182;2023-04-24T00:40:00;6.10;;;4.53;;
37477;SDS011;23334;54.316;10.182;2023-04-24T00:42:27;5.37;;;4.70;;
37477;SDS011;23334;54.316;10.182;2023-04-24T00:44:53;6.83;;;4.60;;
37477;SDS011;23334;54.316;10.182;2023-04-24T00:47:19;6.10;;;5.53;;
37477;SDS011;23334;54.316;10.182;2023-04-24T00:49:46;5.67;;;4.27;;
37477;SDS011;23334;54.316;10.182;2023-04-24T00:52:12;7.33;;;5.40;;
37477;SDS011;23334;54.316;10.182;2023-04-24T00:54:42;5.33;;;4.93;;
37477;SDS011;23334;54.316;10.182;2023-04-24T00:57:10;5.60;;;5.10;;
37477;SDS011;23334;54.316;10.182;2023-04-24T00:59:37;5.40;;;4.90;;
37477;SDS011;23334;54.316;10.182;2023-04-24T01:02:04;5.43;;;4.70;;
37477;SDS011;23334;54.316;10.182;2023-04-24T01:04:30;6.77;;;5.10;;
37477;SDS011;23334;54.316;10.182;2023-04-24T01:06:56;5.07;;;4.60;;
37477;SDS011;23334;54.316;10.182;2023-04-24T01:09:22;7.00;;;5.73;;
37477;SDS011;23334;54.316;10.182;2023-04-24T01:11:49;5.10;;;4.70;;
37477;SDS011;23334;54.316;10.182;2023-04-24T01:14:14;6.03;;;5.40;;
37477;SDS011;23334;54.316;10.182;2023-04-24T01:16:41;8.97;;;5.87;;
37477;SDS011;23334;54.316;10.182;2023-04-24T01:19:07;6.30;;;5.70;;
37477;SDS011;23334;54.316;10.182;2023-04-24T01:21:34;5.50;;;5.00;;
37477;SDS011;23334;54.316;10.182;2023-04-24T01:24:02;7.07;;;6.13;;
37477;SDS011;23334;54.316;10.182;2023-04-24T01:26:31;7.80;;;5.67;;
37477;SDS011;23334;54.316;10.182;2023-04-24T01:28:57;5.60;;;5.10;;
37477;SDS011;23334;54.316;10.182;2023-04-24T01:31:23;6.40;;;5.13;;
37477;SDS011;23334;54.316;10.182;2023-04-24T01:33:50;13.43;;;4.87;;
37477;SDS011;23334;54.316;10.182;2023-04-24T01:36:17;6.53;;;4.30;;
37477;SDS011;23334;54.316;10.182;2023-04-24T01:38:43;9.97;;;5.50;;
37477;SDS011;23334;54.316;10.182;2023-04-24T01:41:09;5.57;;;5.10;;
37477;SDS011;23334;54.316;10.182;2023-04-24T01:43:35;6.20;;;5.10;;
37477;SDS011;23334;54.316;10.182;2023-04-24T01:46:01;5.20;;;4.80;;
37477;SDS011;23334;54.316;10.182;2023-04-24T01:48:27;6.27;;;5.43;;
37477;SDS011;23334;54.316;10.182;2023-04-24T01:50:53;6.13;;;5.53;;
37477;SDS011;23334;54.316;10.182;2023-04-24T01:53:20;6.43;;;5.47;;
37477;SDS011;23334;54.316;10.182;2023-04-24T01:55:46;7.27;;;5.80;;
37477;SDS011;23334;54.316;10.182;2023-04-24T01:58:12;8.00;;;5.33;;
37477;SDS011;23334;54.316;10.182;2023-04-24T02:00:37;5.80;;;5.30;;
37477;SDS011;23334;54.316;10.182;2023-04-24T02:03:04;6.10;;;5.50;;
37477;SDS011;23334;54.316;10.182;2023-04-24T02:05:30;7.37;;;5.77;;
37477;SDS011;23334;54.316;10.182;2023-04-24T02:07:56;5.67;;;5.17;;
37477;SDS011;23334;54.316;10.182;2023-04-24T02:10:22;5.63;;;5.10;;
37477;SDS011;23334;54.316;10.182;2023-04-24T02:12:48;5.87;;;5.33;;
37477;SDS011;23334;54.316;10.182;2023-04-24T02:15:14;5.03;;;4.63;;
37477;SDS011;23334;54.316;10.182;2023-04-24T02:17:40;7.90;;;5.63;;
37477;SDS011;23334;54.316;10.182;2023-04-24T02:20:06;6.40;;;5.47;;
37477;SDS011;23334;54.316;10.182;2023-04-24T02:22:32;5.80;;;5.30;;
37477;SDS011;23334;54.316;10.182;2023-04-24T02:24:57;6.93;;;5.93;;
37477;SDS011;23334;54.316;10.182;2023-04-24T02:27:23;10.63;;;5.37;;
37477;SDS011;23334;54.316;10.182;2023-04-24T02:29:49;8.50;;;5.80;;
37477;SDS011;23334;54.316;10.182;2023-04-24T02:32:15;5.80;;;5.30;;
37477;SDS011;23334;54.316;10.182;2023-04-24T02:34:42;7.60;;;5.30;;
37477;SDS011;23334;54.316;10.182;2023-04-24T02:37:09;6.60;;;6.00;;
37477;SDS011;23334;54.316;10.182;2023-04-24T02:39:34;6.90;;;5.40;;
37477;SDS011;23334;54.316;10.182;2023-04-24T02:42:00;8.77;;;5.73;;
37477;SDS011;23334;54.316;10.182;2023-04-24T02:44:26;8.37;;;6.23;;
37477;SDS011;23334;54.316;10.182;2023-04-24T02:46:52;8.63;;;6.20;;
37477;SDS011;23334;54.316;10.182;2023-04-24T02:49:18;6.50;;;5.87;;
37477;SDS011;23334;54.316;10.182;2023-04-24T02:51:44;6.57;;;5.93;;
37477;SDS011;23334;54.316;10.182;2023-04-24T02:54:10;7.27;;;6.57;;
37477;SDS011;23334;54.316;10.182;2023-04-24T02:56:36;7.00;;;6.30;;
37477;SDS011;23334;54.316;10.182;2023-04-24T02:59:02;5.70;;;5.20;;
37477;SDS011;23334;54.316;10.182;2023-04-24T03:01:28;6.23;;;5.67;;
37477;SDS011;23334;54.316;10.182;2023-04-24T03:03:54;9.17;;;6.63;;
37477;SDS011;23334;54.316;10.182;2023-04-24T03:06:20;7.70;;;6.53;;
37477;SDS011;23334;54.316;10.182;2023-04-24T03:08:46;8.20;;;6.17;;
37477;SDS011;23334;54.316;10.182;2023-04-24T03:11:12;6.10;;;5.50;;
37477;SDS011;23334;54.316;10.182;2023-04-24T03:13:38;8.03;;;5.97;;
37477;SDS011;23334;54.316;10.182;2023-04-24T03:16:03;7.97;;;5.57;;
37477;SDS011;23334;54.316;10.182;2023-04-24T03:18:29;6.30;;;5.70;;
37477;SDS011;23334;54.316;10.182;2023-04-24T03:20:55;6.60;;;5.70;;
37477;SDS011;23334;54.316;10.182;2023-04-24T03:23:21;6.87;;;6.27;;
37477;SDS011;23334;54.316;10.182;2023-04-24T03:25:47;6.73;;;6.07;;
37477;SDS011;23334;54.316;10.182;2023-04-24T03:28:13;8.00;;;5.47;;
37477;SDS011;23334;54.316;10.182;2023-04-24T03:30:39;8.17;;;6.47;;
37477;SDS011;23334;54.316;10.182;2023-04-24T03:33:05;6.17;;;5.57;;
37477;SDS011;23334;54.316;10.182;2023-04-24T03:35:31;5.53;;;5.10;;
37477;SDS011;23334;54.316;10.182;2023-04-24T03:37:57;6.20;;;5.70;;
37477;SDS011;23334;54.316;10.182;2023-04-24T03:40:23;6.33;;;5.70;;
37477;SDS011;23334;54.316;10.182;2023-04-24T03:42:49;6.67;;;6.00;;
37477;SDS011;23334;54.316;10.182;2023-04-24T03:45:14;6.80;;;6.10;;
37477;SDS011;23334;54.316;10.182;2023-04-24T03:47:40;9.40;;;5.30;;
37477;SDS011;23334;54.316;10.182;2023-04-24T03:50:06;6.17;;;5.57;;
37477;SDS011;23334;54.316;10.182;2023-04-24T03:52:32;5.60;;;4.97;;
37477;SDS011;23334;54.316;10.182;2023-04-24T03:54:58;5.03;;;4.57;;
37477;SDS011;23334;54.316;10.182;2023-04-24T03:57:25;6.17;;;5.63;;
37477;SDS011;23334;54.316;10.182;2023-04-24T03:59:50;5.63;;;5.10;;
37477;SDS011;23334;54.316;10.182;2023-04-24T04:02:18;5.93;;;4.90;;
37477;SDS011;23334;54.316;10.182;2023-04-24T04:04:44;5.63;;;5.17;;
37477;SDS011;23334;54.316;10.182;2023-04-24T04:07:10;5.90;;;5.40;;
37477;SDS011;23334;54.316;10.182;2023-04-24T04:09:36;6.23;;;5.43;;
37477;SDS011;23334;54.316;10.182;2023-04-24T04:12:02;5.57;;;5.10;;
37477;SDS011;23334;54.316;10.182;2023-04-24T04:14:28;5.97;;;5.47;;
37477;SDS011;23334;54.316;10.182;2023-04-24T04:16:54;6.87;;;5.13;;
37477;SDS011;23334;54.316;10.182;2023-04-24T04:19:20;6.87;;;5.00;;
37477;SDS011;23334;54.316;10.182;2023-04-24T04:21:46;5.07;;;4.63;;
37477;SDS011;23334;54.316;10.182;2023-04-24T04:24:17;4.80;;;4.40;;
37477;SDS011;23334;54.316;10.182;2023-04-24T04:26:43;6.90;;;5.10;;
37477;SDS011;23334;54.316;10.182;2023-04-24T04:29:11;4.97;;;4.60;;
37477;SDS011;23334;54.316;10.182;2023-04-24T04:31:37;5.30;;;4.20;;
37477;SDS011;23334;54.316;10.182;2023-04-24T04:34:03;5.27;;;4.77;;
37477;SDS011;23334;54.316;10.182;2023-04-24T04:36:29;5.20;;;4.80;;
37477;SDS011;23334;54.316;10.182;2023-04-24T04:38:56;4.23;;;3.83;;
37477;SDS011;23334;54.316;10.182;2023-04-24T04:41:24;4.20;;;3.80;;
37477;SDS011;23334;54.316;10.182;2023-04-24T04:43:51;3.97;;;3.70;;
37477;SDS011;23334;54.316;10.182;2023-04-24T04:46:17;4.40;;;4.00;;
37477;SDS011;23334;54.316;10.182;2023-04-24T04:48:43;3.47;;;3.27;;
37477;SDS011;23334;54.316;10.182;2023-04-24T04:51:09;6.43;;;3.40;;
37477;SDS011;23334;54.316;10.182;2023-04-24T04:53:35;3.20;;;3.00;;
37477;SDS011;23334;54.316;10.182;2023-04-24T04:56:01;3.10;;;2.90;;
37477;SDS011;23334;54.316;10.182;2023-04-24T04:58:27;3.57;;;3.27;;
37477;SDS011;23334;54.316;10.182;2023-04-24T05:00:53;3.60;;;3.07;;
37477;SDS011;23334;54.316;10.182;2023-04-24T05:03:19;3.17;;;2.97;;
37477;SDS011;23334;54.316;10.182;2023-04-24T05:05:45;3.70;;;3.40;;
37477;SDS011;23334;54.316;10.182;2023-04-24T05:08:11;3.17;;;2.97;;
37477;SDS011;23334;54.316;10.182;2023-04-24T05:10:36;2.67;;;2.57;;
37477;SDS011;23334;54.316;10.182;2023-04-24T05:13:03;3.40;;;3.10;;
37477;SDS011;23334;54.316;10.182;2023-04-24T05:15:29;2.67;;;2.50;;
37477;SDS011;23334;54.316;10.182;2023-04-24T05:17:55;3.20;;;3.00;;
37477;SDS011;23334;54.316;10.182;2023-04-24T05:20:21;2.83;;;2.73;;
37477;SDS011;23334;54.316;10.182;2023-04-24T05:22:48;2.67;;;2.50;;
37477;SDS011;23334;54.316;10.182;2023-04-24T05:25:13;3.23;;;2.93;;
37477;SDS011;23334;54.316;10.182;2023-04-24T05:27:39;2.97;;;2.80;;
37477;SDS011;23334;54.316;10.182;2023-04-24T05:30:06;2.50;;;2.40;;
37477;SDS011;23334;54.316;10.182;2023-04-24T05:32:32;2.20;;;2.10;;
37477;SDS011;23334;54.316;10.182;2023-04-24T05:34:58;3.30;;;2.90;;
37477;SDS011;23334;54.316;10.182;2023-04-24T05:37:24;2.53;;;2.40;;
37477;SDS011;23334;54.316;10.182;2023-04-24T05:39:50;3.60;;;2.60;;
37477;SDS011;23334;54.316;10.182;2023-04-24T05:42:16;3.33;;;3.13;;
37477;SDS011;23334;54.316;10.182;2023-04-24T05:44:42;3.80;;;3.00;;
37477;SDS011;23334;54.316;10.182;2023-04-24T05:47:08;3.20;;;3.00;;
37477;SDS011;23334;54.316;10.182;2023-04-24T05:49:34;3.30;;;3.00;;
37477;SDS011;23334;54.316;10.182;2023-04-24T05:52:00;3.93;;;2.50;;
37477;SDS011;23334;54.316;10.182;2023-04-24T05:54:25;4.90;;;3.10;;
37477;SDS011;23334;54.316;10.182;2023-04-24T05:56:51;3.37;;;2.53;;
37477;SDS011;23334;54.316;10.182;2023-04-24T05:59:19;3.40;;;2.70;;
37477;SDS011;23334;54.316;10.182;2023-04-24T06:01:45;2.70;;;2.50;;
37477;SDS011;23334;54.316;10.182;2023-04-24T06:04:11;2.70;;;2.50;;
37477;SDS011;23334;54.316;10.182;2023-04-24T06:06:38;3.20;;;2.90;;
37477;SDS011;23334;54.316;10.182;2023-04-24T06:09:05;6.27;;;2.80;;
37477;SDS011;23334;54.316;10.182;2023-04-24T06:11:30;6.70;;;2.47;;
37477;SDS011;23334;54.316;10.182;2023-04-24T06:13:57;2.33;;;2.17;;
37477;SDS011;23334;54.316;10.182;2023-04-24T06:16:22;2.57;;;2.37;;
37477;SDS011;23334;54.316;10.182;2023-04-24T06:18:48;2.43;;;2.33;;
37477;SDS011;23334;54.316;10.182;2023-04-24T06:21:15;2.17;;;2.07;;
37477;SDS011;23334;54.316;10.182;2023-04-24T06:23:41;1.90;;;1.80;;
37477;SDS011;23334;54.316;10.182;2023-04-24T06:26:08;1.70;;;1.57;;
37477;SDS011;23334;54.316;10.182;2023-04-24T06:28:34;3.00;;;2.60;;
37477;SDS011;23334;54.316;10.182;2023-04-24T06:31:00;4.60;;;2.40;;
37477;SDS011;23334;54.316;10.182;2023-04-24T06:33:27;2.10;;;1.90;;
37477;SDS011;23334;54.316;10.182;2023-04-24T06:35:52;2.20;;;2.00;;
37477;SDS011;23334;54.316;10.182;2023-04-24T06:38:18;2.57;;;2.37;;
37477;SDS011;23334;54.316;10.182;2023-04-24T06:40:45;2.23;;;2.03;;
37477;SDS011;23334;54.316;10.182;2023-04-24T06:43:11;2.97;;;2.10;;
37477;SDS011;23334;54.316;10.182;2023-04-24T06:45:37;2.07;;;1.90;;
37477;SDS011;23334;54.316;10.182;2023-04-24T06:48:04;2.77;;;2.10;;
37477;SDS011;23334;54.316;10.182;2023-04-24T06:50:30;2.47;;;2.27;;
37477;SDS011;23334;54.316;10.182;2023-04-24T06:52:56;2.00;;;1.90;;
37477;SDS011;23334;54.316;10.182;2023-04-24T06:55:21;2.33;;;2.20;;
37477;SDS011;23334;54.316;10.182;2023-04-24T06:57:47;1.73;;;1.63;;
37477;SDS011;23334;54.316;10.182;2023-04-24T07:00:13;2.43;;;2.23;;
37477;SDS011;23334;54.316;10.182;2023-04-24T07:02:39;2.23;;;2.03;;
37477;SDS011;23334;54.316;10.182;2023-04-24T07:05:05;2.10;;;1.97;;
37477;SDS011;23334;54.316;10.182;2023-04-24T07:07:33;2.03;;;1.90;;
37477;SDS011;23334;54.316;10.182;2023-04-24T07:09:59;2.43;;;2.27;;
37477;SDS011;23334;54.316;10.182;2023-04-24T07:12:25;2.30;;;2.20;;
37477;SDS011;23334;54.316;10.182;2023-04-24T07:14:51;2.10;;;1.90;;
37477;SDS011;23334;54.316;10.182;2023-04-24T07:17:16;1.97;;;1.87;;
37477;SDS011;23334;54.316;10.182;2023-04-24T07:19:42;1.63;;;1.53;;
37477;SDS011;23334;54.316;10.182;2023-04-24T07:22:08;2.37;;;2.17;;
37477;SDS011;23334;54.316;10.182;2023-04-24T07:24:33;2.50;;;2.03;;
37477;SDS011;23334;54.316;10.182;2023-04-24T07:26:59;1.93;;;1.83;;
37477;SDS011;23334;54.316;10.182;2023-04-24T07:29:26;1.87;;;1.77;;
37477;SDS011;23334;54.316;10.182;2023-04-24T07:31:51;1.73;;;1.63;;
37477;SDS011;23334;54.316;10.182;2023-04-24T07:34:18;2.40;;;2.00;;
37477;SDS011;23334;54.316;10.182;2023-04-24T07:36:44;2.10;;;1.90;;
37477;SDS011;23334;54.316;10.182;2023-04-24T07:39:11;2.30;;;2.10;;
37477;SDS011;23334;54.316;10.182;2023-04-24T07:41:37;2.53;;;1.90;;
37477;SDS011;23334;54.316;10.182;2023-04-24T07:44:02;2.40;;;2.20;;
37477;SDS011;23334;54.316;10.182;2023-04-24T07:46:29;2.80;;;2.60;;
37477;SDS011;23334;54.316;10.182;2023-04-24T07:48:55;2.00;;;1.90;;
37477;SDS011;23334;54.316;10.182;2023-04-24T07:51:21;3.10;;;2.60;;
37477;SDS011;23334;54.316;10.182;2023-04-24T07:53:47;2.53;;;2.17;;
37477;SDS011;23334;54.316;10.182;2023-04-24T07:56:12;2.77;;;2.20;;
37477;SDS011;23334;54.316;10.182;2023-04-24T07:58:38;2.50;;;2.40;;
37477;SDS011;23334;54.316;10.182;2023-04-24T08:01:04;2.40;;;2.30;;
37477;SDS011;23334;54.316;10.182;2023-04-24T08:03:32;2.13;;;2.03;;
37477;SDS011;23334;54.316;10.182;2023-04-24T08:05:57;2.67;;;2.47;;
37477;SDS011;23334;54.316;10.182;2023-04-24T08:08:23;2.73;;;2.53;;
37477;SDS011;23334;54.316;10.182;2023-04-24T08:10:49;2.23;;;2.13;;
37477;SDS011;23334;54.316;10.182;2023-04-24T08:13:15;2.73;;;2.40;;
37477;SDS011;23334;54.316;10.182;2023-04-24T08:15:41;2.10;;;2.00;;
37477;SDS011;23334;54.316;10.182;2023-04-24T08:18:07;2.67;;;2.47;;
37477;SDS011;23334;54.316;10.182;2023-04-24T08:20:33;3.00;;;2.53;;
37477;SDS011;23334;54.316;10.182;2023-04-24T08:22:58;2.43;;;2.23;;
37477;SDS011;23334;54.316;10.182;2023-04-24T08:25:24;2.47;;;2.27;;
37477;SDS011;23334;54.316;10.182;2023-04-24T08:27:50;3.23;;;1.93;;
37477;SDS011;23334;54.316;10.182;2023-04-24T08:30:17;2.60;;;2.40;;
37477;SDS011;23334;54.316;10.182;2023-04-24T08:32:42;2.70;;;2.50;;
37477;SDS011;23334;54.316;10.182;2023-04-24T08:35:08;2.73;;;2.63;;
37477;SDS011;23334;54.316;10.182;2023-04-24T08:37:34;2.80;;;2.60;;
37477;SDS011;23334;54.316;10.182;2023-04-24T08:40:01;2.50;;;2.40;;
37477;SDS011;23334;54.316;10.182;2023-04-24T08:42:27;2.83;;;2.30;;
37477;SDS011;23334;54.316;10.182;2023-04-24T08:44:53;3.93;;;2.90;;
37477;SDS011;23334;54.316;10.182;2023-04-24T08:47:20;2.83;;;2.63;;
37477;SDS011;23334;54.316;10.182;2023-04-24T08:49:47;3.20;;;2.90;;
37477;SDS011;23334;54.316;10.182;2023-04-24T08:52:13;3.20;;;3.00;;
37477;SDS011;23334;54.316;10.182;2023-04-24T08:54:41;3.63;;;3.10;;
37477;SDS011;23334;54.316;10.182;2023-04-24T08:57:08;3.10;;;2.90;;
37477;SDS011;23334;54.316;10.182;2023-04-24T08:59:36;3.07;;;2.67;;
37477;SDS011;23334;54.316;10.182;2023-04-24T09:02:02;3.13;;;2.93;;
37477;SDS011;23334;54.316;10.182;2023-04-24T09:04:29;2.90;;;2.80;;
37477;SDS011;23334;54.316;10.182;2023-04-24T09:06:56;3.73;;;3.40;;
37477;SDS011;23334;54.316;10.182;2023-04-24T09:09:22;3.53;;;3.30;;
37477;SDS011;23334;54.316;10.182;2023-04-24T09:11:49;3.20;;;3.07;;
37477;SDS011;23334;54.316;10.182;2023-04-24T09:14:15;3.03;;;2.87;;
37477;SDS011;23334;54.316;10.182;2023-04-24T09:16:42;3.20;;;2.97;;
37477;SDS011;23334;54.316;10.182;2023-04-24T09:19:08;3.10;;;2.90;;
37477;SDS011;23334;54.316;10.182;2023-04-24T09:21:33;3.47;;;3.23;;
37477;SDS011;23334;54.316;10.182;2023-04-24T09:24:00;2.93;;;2.73;;
37477;SDS011;23334;54.316;10.182;2023-04-24T09:26:31;3.70;;;3.43;;
37477;SDS011;23334;54.316;10.182;2023-04-24T09:29:00;6.77;;;3.73;;
37477;SDS011;23334;54.316;10.182;2023-04-24T09:31:26;3.70;;;3.50;;
37477;SDS011;23334;54.316;10.182;2023-04-24T09:33:54;4.10;;;3.80;;
37477;SDS011;23334;54.316;10.182;2023-04-24T09:36:28;4.50;;;4.20;;
37477;SDS011;23334;54.316;10.182;2023-04-24T09:38:57;4.67;;;4.33;;
37477;SDS011;23334;54.316;10.182;2023-04-24T09:41:27;4.70;;;4.30;;
37477;SDS011;23334;54.316;10.182;2023-04-24T09:43:56;6.70;;;4.80;;
37477;SDS011;23334;54.316;10.182;2023-04-24T09:46:29;5.80;;;4.60;;
37477;SDS011;23334;54.316;10.182;2023-04-24T09:48:56;5.00;;;4.60;;
37477;SDS011;23334;54.316;10.182;2023-04-24T09:51:56;7.77;;;4.13;;
37477;SDS011;23334;54.316;10.182;2023-04-24T09:54:15;4.63;;;4.23;;
37477;SDS011;23334;54.316;10.182;2023-04-24T09:56:44;4.37;;;4.07;;
37477;SDS011;23334;54.316;10.182;2023-04-24T09:59:11;4.70;;;4.40;;
37477;SDS011;23334;54.316;10.182;2023-04-24T10:01:37;4.70;;;4.40;;
37477;SDS011;23334;54.316;10.182;2023-04-24T10:04:29;4.40;;;3.87;;
37477;SDS011;23334;54.316;10.182;2023-04-24T10:06:57;4.50;;;4.20;;
37477;SDS011;23334;54.316;10.182;2023-04-24T10:09:23;6.50;;;4.10;;
37477;SDS011;23334;54.316;10.182;2023-04-24T10:11:52;4.27;;;3.97;;
37477;SDS011;23334;54.316;10.182;2023-04-24T10:14:20;4.93;;;4.53;;
37477;SDS011;23334;54.316;10.182;2023-04-24T10:16:47;5.53;;;5.00;;
37477;SDS011;23334;54.316;10.182;2023-04-24T10:19:13;6.70;;;5.17;;
37477;SDS011;23334;54.316;10.182;2023-04-24T10:21:40;4.77;;;4.33;;
37477;SDS011;23334;54.316;10.182;2023-04-24T10:24:07;4.33;;;4.00;;
37477;SDS011;23334;54.316;10.182;2023-04-24T10:26:34;4.10;;;3.80;;
37477;SDS011;23334;54.316;10.182;2023-04-24T10:29:03;5.10;;;4.60;;
37477;SDS011;23334;54.316;10.182;2023-04-24T10:31:31;4.93;;;4.53;;
37477;SDS011;23334;54.316;10.182;2023-04-24T10:33:58;5.50;;;4.57;;
37477;SDS011;23334;54.316;10.182;2023-04-24T10:36:24;4.23;;;3.83;;
37477;SDS011;23334;54.316;10.182;2023-04-24T10:38:53;5.97;;;5.37;;
37477;SDS011;23334;54.316;10.182;2023-04-24T10:41:21;5.00;;;4.53;;
37477;SDS011;23334;54.316;10.182;2023-04-24T10:44:06;5.13;;;4.53;;
37477;SDS011;23334;54.316;10.182;2023-04-24T10:46:36;5.10;;;4.70;;
37477;SDS011;23334;54.316;10.182;2023-04-24T10:49:06;9.83;;;4.97;;
37477;SDS011;23334;54.316;10.182;2023-04-24T10:51:48;5.43;;;4.93;;
37477;SDS011;23334;54.316;10.182;2023-04-24T10:54:28;5.83;;;4.80;;
37477;SDS011;23334;54.316;10.182;2023-04-24T10:59:50;7.57;;;5.33;;
37477;SDS011;23334;54.316;10.182;2023-04-24T11:02:37;5.50;;;5.00;;
37477;SDS011;23334;54.316;10.182;2023-04-24T11:05:05;5.03;;;4.53;;
37477;SDS011;23334;54.316;10.182;2023-04-24T11:10:40;5.73;;;5.13;;
37477;SDS011;23334;54.316;10.182;2023-04-24T11:13:08;5.37;;;4.97;;
37477;SDS011;23334;54.316;10.182;2023-04-24T11:15:34;5.27;;;4.80;;
37477;SDS011;23334;54.316;10.182;2023-04-24T11:18:00;6.10;;;5.60;;
37477;SDS011;23334;54.316;10.182;2023-04-24T11:20:26;6.80;;;5.43;;
37477;SDS011;23334;54.316;10.182;2023-04-24T11:22:55;5.83;;;5.33;;
37477;SDS011;23334;54.316;10.182;2023-04-24T11:25:22;7.73;;;6.03;;
37477;SDS011;23334;54.316;10.182;2023-04-24T11:27:49;5.67;;;5.20;;
37477;SDS011;23334;54.316;10.182;2023-04-24T11:30:19;5.57;;;5.17;;
37477;SDS011;23334;54.316;10.182;2023-04-24T11:32:49;5.83;;;5.40;;
37477;SDS011;23334;54.316;10.182;2023-04-24T11:35:17;6.27;;;5.77;;
37477;SDS011;23334;54.316;10.182;2023-04-24T11:37:47;6.80;;;5.57;;
37477;SDS011;23334;54.316;10.182;2023-04-24T11:40:15;6.23;;;5.70;;
37477;SDS011;23334;54.316;10.182;2023-04-24T11:42:45;6.37;;;5.77;;
37477;SDS011;23334;54.316;10.182;2023-04-24T11:45:13;7.13;;;6.30;;
37477;SDS011;23334;54.316;10.182;2023-04-24T11:47:42;6.20;;;5.70;;
37477;SDS011;23334;54.316;10.182;2023-04-24T11:50:18;7.00;;;6.30;;
37477;SDS011;23334;54.316;10.182;2023-04-24T11:52:46;6.50;;;5.90;;
37477;SDS011;23334;54.316;10.182;2023-04-24T11:57:45;6.90;;;6.17;;
37477;SDS011;23334;54.316;10.182;2023-04-24T12:00:18;7.50;;;6.80;;
37477;SDS011;23334;54.316;10.182;2023-04-24T12:02:47;7.30;;;6.03;;
37477;SDS011;23334;54.316;10.182;2023-04-24T12:05:31;7.77;;;6.10;;
37477;SDS011;23334;54.316;10.182;2023-04-24T12:07:56;6.87;;;6.00;;
37477;SDS011;23334;54.316;10.182;2023-04-24T12:10:24;8.87;;;5.90;;
37477;SDS011;23334;54.316;10.182;2023-04-24T12:12:51;6.40;;;5.80;;
37477;SDS011;23334;54.316;10.182;2023-04-24T12:15:19;5.97;;;5.47;;
37477;SDS011;23334;54.316;10.182;2023-04-24T12:17:45;5.87;;;5.27;;
37477;SDS011;23334;54.316;10.182;2023-04-24T12:20:11;7.17;;;6.43;;
37477;SDS011;23334;54.316;10.182;2023-04-24T12:22:48;7.43;;;6.47;;
37477;SDS011;23334;54.316;10.182;2023-04-24T12:25:19;11.73;;;7.03;;
37477;SDS011;23334;54.316;10.182;2023-04-24T12:27:53;7.30;;;6.60;;
37477;SDS011;23334;54.316;10.182;2023-04-24T12:30:21;8.23;;;6.93;;
37477;SDS011;23334;54.316;10.182;2023-04-24T12:32:51;9.67;;;8.00;;
37477;SDS011;23334;54.316;10.182;2023-04-24T12:35:20;8.70;;;6.77;;
37477;SDS011;23334;54.316;10.182;2023-04-24T12:37:47;9.47;;;6.67;;
37477;SDS011;23334;54.316;10.182;2023-04-24T12:40:13;6.37;;;5.70;;
37477;SDS011;23334;54.316;10.182;2023-04-24T12:42:50;7.30;;;6.60;;
37477;SDS011;23334;54.316;10.182;2023-04-24T12:45:17;9.10;;;6.87;;
37477;SDS011;23334;54.316;10.182;2023-04-24T12:47:44;9.20;;;6.77;;
37477;SDS011;23334;54.316;10.182;2023-04-24T12:50:11;6.30;;;5.60;;
37477;SDS011;23334;54.316;10.182;2023-04-24T12:52:38;7.17;;;6.00;;
37477;SDS011;23334;54.316;10.182;2023-04-24T12:55:04;12.05;;;6.60;;
37477;SDS011;23334;54.316;10.182;2023-04-24T12:57:33;7.63;;;6.23;;
37477;SDS011;23334;54.316;10.182;2023-04-24T13:00:00;9.27;;;6.97;;
37477;SDS011;23334;54.316;10.182;2023-04-24T13:02:29;9.90;;;6.53;;
37477;SDS011;23334;54.316;10.182;2023-04-24T13:04:56;6.17;;;5.47;;
37477;SDS011;23334;54.316;10.182;2023-04-24T13:07:22;9.07;;;6.97;;
37477;SDS011;23334;54.316;10.182;2023-04-24T13:09:48;8.30;;;6.60;;
37477;SDS011;23334;54.316;10.182;2023-04-24T13:12:15;8.40;;;7.37;;
37477;SDS011;23334;54.316;10.182;2023-04-24T13:14:41;12.73;;;8.80;;
37477;SDS011;23334;54.316;10.182;2023-04-24T13:17:07;10.70;;;8.33;;
37477;SDS011;23334;54.316;10.182;2023-04-24T13:19:37;11.43;;;7.63;;
37477;SDS011;23334;54.316;10.182;2023-04-24T13:22:08;13.60;;;8.37;;
37477;SDS011;23334;54.316;10.182;2023-04-24T13:24:34;9.40;;;8.33;;
37477;SDS011;23334;54.316;10.182;2023-04-24T13:27:00;17.37;;;9.57;;
37477;SDS011;23334;54.316;10.182;2023-04-24T13:29:27;11.77;;;9.00;;
37477;SDS011;23334;54.316;10.182;2023-04-24T13:31:54;12.97;;;9.40;;
37477;SDS011;23334;54.316;10.182;2023-04-24T13:34:20;12.33;;;8.83;;
37477;SDS011;23334;54.316;10.182;2023-04-24T13:36:46;12.80;;;9.40;;
37477;SDS011;23334;54.316;10.182;2023-04-24T13:39:12;10.13;;;7.47;;
37477;SDS011;23334;54.316;10.182;2023-04-24T13:41:38;14.13;;;8.97;;
37477;SDS011;23334;54.316;10.182;2023-04-24T13:44:04;14.63;;;8.33;;
37477;SDS011;23334;54.316;10.182;2023-04-24T13:46:30;11.47;;;8.53;;
37477;SDS011;23334;54.316;10.182;2023-04-24T13:48:56;11.03;;;8.10;;
37477;SDS011;23334;54.316;10.182;2023-04-24T13:51:23;9.90;;;8.30;;
37477;SDS011;23334;54.316;10.182;2023-04-24T13:53:51;12.30;;;8.60;;
37477;SDS011;23334;54.316;10.182;2023-04-24T13:56:17;10.13;;;8.30;;
37477;SDS011;23334;54.316;10.182;2023-04-24T13:58:43;15.73;;;9.27;;
37477;SDS011;23334;54.316;10.182;2023-04-24T14:01:09;9.93;;;8.27;;
37477;SDS011;23334;54.316;10.182;2023-04-24T14:03:35;11.43;;;8.80;;
37477;SDS011;23334;54.316;10.182;2023-04-24T14:06:02;10.10;;;7.63;;
37477;SDS011;23334;54.316;10.182;2023-04-24T14:08:28;11.00;;;8.20;;
37477;SDS011;23334;54.316;10.182;2023-04-24T14:10:54;15.30;;;8.90;;
37477;SDS011;23334;54.316;10.182;2023-04-24T14:13:20;10.40;;;7.43;;
37477;SDS011;23334;54.316;10.182;2023-04-24T14:15:47;11.87;;;7.40;;
37477;SDS011;23334;54.316;10.182;2023-04-24T14:18:13;8.97;;;7.37;;
37477;SDS011;23334;54.316;10.182;2023-04-24T14:20:38;7.60;;;6.13;;
37477;SDS011;23334;54.316;10.182;2023-04-24T14:23:05;7.50;;;6.57;;
37477;SDS011;23334;54.316;10.182;2023-04-24T14:25:30;12.77;;;7.20;;
37477;SDS011;23334;54.316;10.182;2023-04-24T14:27:56;9.10;;;6.67;;
37477;SDS011;23334;54.316;10.182;2023-04-24T14:30:21;9.63;;;6.57;;
37477;SDS011;23334;54.316;10.182;2023-04-24T14:32:48;7.10;;;6.13;;
37477;SDS011;23334;54.316;10.182;2023-04-24T14:35:14;8.40;;;6.87;;
37477;SDS011;23334;54.316;10.182;2023-04-24T14:37:40;6.10;;;5.50;;
37477;SDS011;23334;54.316;10.182;2023-04-24T14:40:08;8.57;;;6.50;;